createdAt,value
2024-05-09T00:00:44.662Z,55.92
2024-05-09T00:03:32.410Z,56.31
2024-05-09T00:06:00.915Z,56.39
2024-05-09T00:08:28.897Z,56.59
2024-05-09T00:10:56.826Z,56.67
2024-05-09T00:13:24.559Z,56.85
2024-05-09T00:15:52.200Z,56.70
2024-05-09T00:18:20.066Z,56.89
2024-05-09T00:20:47.841Z,57.14
2024-05-09T00:23:15.870Z,57.37
2024-05-09T00:25:44.578Z,57.47
2024-05-09T00:28:12.734Z,57.56
2024-05-09T00:30:40.869Z,57.51
2024-05-09T00:33:10.382Z,57.66
2024-05-09T00:35:39.601Z,57.92
2024-05-09T00:38:07.929Z,58.10
2024-05-09T00:40:40.329Z,58.25
2024-05-09T00:43:14.515Z,58.31
2024-05-09T00:45:43.990Z,58.44
2024-05-09T00:48:15.365Z,58.75
2024-05-09T00:50:46.662Z,59.23
2024-05-09T00:53:16.394Z,59.15
2024-05-09T00:55:44.860Z,59.44
2024-05-09T00:58:17.977Z,59.68
2024-05-09T01:00:46.448Z,59.72
2024-05-09T01:03:14.749Z,60.13
2024-05-09T01:05:44.350Z,60.51
2024-05-09T01:08:13.192Z,60.46
2024-05-09T01:10:44.141Z,60.45
2024-05-09T01:13:13.698Z,60.62
2024-05-09T01:15:41.680Z,60.69
2024-05-09T01:18:11.661Z,60.75
2024-05-09T01:20:43.380Z,61.09
2024-05-09T01:23:15.213Z,61.11
2024-05-09T01:25:44.998Z,61.16
2024-05-09T01:28:13.323Z,61.48
2024-05-09T01:30:40.947Z,61.46
2024-05-09T01:33:10.520Z,61.63
2024-05-09T01:35:42.051Z,61.80
2024-05-09T01:38:13.806Z,61.89
2024-05-09T01:40:43.442Z,62.00
2024-05-09T01:43:12.070Z,62.17
2024-05-09T01:45:40.607Z,62.43
2024-05-09T01:48:10.171Z,62.83
2024-05-09T01:50:41.729Z,63.23
2024-05-09T01:53:13.519Z,63.35
2024-05-09T01:55:42.220Z,63.68
2024-05-09T01:58:10.078Z,63.71
2024-05-09T02:00:42.117Z,63.92
2024-05-09T02:03:16.901Z,63.90
2024-05-09T02:05:50.048Z,63.97
2024-05-09T02:08:19.925Z,63.79
2024-05-09T02:10:49.335Z,63.99
2024-05-09T02:13:17.394Z,64.11
2024-05-09T02:15:45.237Z,63.92
2024-05-09T02:18:13.714Z,64.41
2024-05-09T02:20:42.762Z,64.60
2024-05-09T02:23:11.413Z,64.75
2024-05-09T02:25:39.906Z,64.72
2024-05-09T02:28:07.935Z,64.93
2024-05-09T02:30:40.038Z,64.91
2024-05-09T02:33:11.870Z,64.89
2024-05-09T02:35:42.405Z,64.94
2024-05-09T02:38:11.071Z,65.02
2024-05-09T02:40:39.991Z,65.00
2024-05-09T02:43:10.635Z,65.35
2024-05-09T02:45:40.042Z,65.53
2024-05-09T02:48:13.108Z,65.55
2024-05-09T02:50:41.993Z,65.88
2024-05-09T02:53:14.181Z,66.07
2024-05-09T02:55:43.361Z,66.39
2024-05-09T02:58:11.847Z,66.58
2024-05-09T03:00:41.958Z,66.69
2024-05-09T03:03:13.603Z,66.46
2024-05-09T03:05:46.923Z,66.66
2024-05-09T03:08:14.985Z,66.57
2024-05-09T03:10:43.021Z,66.74
2024-05-09T03:13:14.384Z,66.95
2024-05-09T03:15:44.228Z,66.78
2024-05-09T03:18:12.738Z,66.90
2024-05-09T03:20:40.964Z,66.97
2024-05-09T03:23:10.235Z,67.12
2024-05-09T03:25:41.389Z,67.06
2024-05-09T03:28:09.123Z,67.09
2024-05-09T03:30:41.782Z,67.26
2024-05-09T03:33:13.364Z,67.12
2024-05-09T03:35:43.568Z,67.29
2024-05-09T03:38:11.558Z,67.42
2024-05-09T03:40:46.873Z,67.42
2024-05-09T03:43:15.214Z,67.79
2024-05-09T03:45:43.567Z,67.83
2024-05-09T03:48:11.571Z,67.68
2024-05-09T03:50:39.567Z,67.85
2024-05-09T03:53:10.424Z,67.80
2024-05-09T03:55:38.845Z,67.82
2024-05-09T03:58:07.711Z,67.75
2024-05-09T04:00:40.009Z,67.95
2024-05-09T04:03:10.793Z,67.98
2024-05-09T04:05:42.598Z,67.93
2024-05-09T04:08:11.573Z,67.78
2024-05-09T04:10:40.660Z,67.65
2024-05-09T04:13:09.643Z,67.89
2024-05-09T04:15:37.268Z,67.79
2024-05-09T04:18:05.380Z,67.85
2024-05-09T04:20:38.590Z,67.89
2024-05-09T04:23:13.628Z,67.83
2024-05-09T04:25:44.066Z,67.44
2024-05-09T04:28:12.195Z,67.13
2024-05-09T04:30:41.494Z,66.90
2024-05-09T04:33:12.250Z,66.63
2024-05-09T04:35:45.115Z,66.21
2024-05-09T04:38:13.996Z,65.95
2024-05-09T04:40:42.379Z,65.75
2024-05-09T04:43:18.628Z,65.78
2024-05-09T04:45:46.665Z,65.49
2024-05-09T04:48:14.866Z,65.42
2024-05-09T04:50:42.969Z,65.46
2024-05-09T04:53:15.933Z,65.12
2024-05-09T04:55:43.699Z,65.06
2024-05-09T04:58:11.536Z,65.08
2024-05-09T05:00:40.575Z,64.96
2024-05-09T05:03:13.705Z,64.77
2024-05-09T05:05:45.352Z,64.56
2024-05-09T05:08:15.404Z,63.79
2024-05-09T05:10:43.911Z,63.73
2024-05-09T05:13:22.591Z,63.96
2024-05-09T05:15:56.935Z,63.60
2024-05-09T05:18:27.394Z,63.61
2024-05-09T05:20:56.042Z,63.58
2024-05-09T05:23:24.687Z,63.19
2024-05-09T05:25:53.555Z,63.00
2024-05-09T05:28:22.473Z,62.53
2024-05-09T05:30:50.302Z,62.09
2024-05-09T05:33:19.139Z,62.20
2024-05-09T05:35:47.631Z,61.96
2024-05-09T05:38:15.600Z,61.70
2024-05-09T05:40:43.398Z,61.35
2024-05-09T05:43:17.136Z,60.86
2024-05-09T05:45:45.360Z,60.97
2024-05-09T05:48:16.063Z,60.97
2024-05-09T05:50:44.376Z,60.84
2024-05-09T05:53:12.356Z,60.35
2024-05-09T05:55:40.997Z,59.81
2024-05-09T05:58:10.353Z,59.57
2024-05-09T06:00:40.202Z,59.45
2024-05-09T06:03:09.959Z,58.93
2024-05-09T06:05:43.334Z,58.50
2024-05-09T06:08:11.517Z,58.67
2024-05-09T06:10:41.008Z,58.24
2024-05-09T06:13:13.313Z,57.82
2024-05-09T06:15:41.986Z,56.84
2024-05-09T06:18:11.232Z,56.78
2024-05-09T06:20:41.905Z,56.80
2024-05-09T06:23:11.065Z,57.00
2024-05-09T06:25:38.965Z,57.05
2024-05-09T06:28:06.854Z,56.63
2024-05-09T06:30:40.055Z,57.08
2024-05-09T06:33:12.791Z,57.09
2024-05-09T06:35:43.645Z,55.92
2024-05-09T06:38:11.954Z,55.72
2024-05-09T06:40:42.193Z,55.20
2024-05-09T06:43:16.751Z,54.99
2024-05-09T06:45:52.399Z,55.49
2024-05-09T06:48:21.069Z,54.60
2024-05-09T06:50:50.001Z,53.70
2024-05-09T06:53:21.091Z,53.41
2024-05-09T06:55:49.157Z,53.62
2024-05-09T06:58:16.922Z,53.34
2024-05-09T07:00:44.782Z,52.58
2024-05-09T07:03:16.985Z,51.41
2024-05-09T07:05:48.175Z,51.01
2024-05-09T07:08:18.074Z,50.41
2024-05-09T07:10:46.379Z,50.62
2024-05-09T07:13:15.061Z,50.94
2024-05-09T07:15:43.242Z,51.19
2024-05-09T07:18:18.567Z,51.30
2024-05-09T07:20:49.595Z,50.70
2024-05-09T07:23:18.657Z,50.29
2024-05-09T07:25:46.673Z,50.12
2024-05-09T07:28:15.138Z,49.20
2024-05-09T07:30:43.067Z,46.46
2024-05-09T07:33:22.855Z,45.40
2024-05-09T07:35:52.366Z,44.17
2024-05-09T07:38:20.273Z,43.51
2024-05-09T07:40:48.520Z,45.04
2024-05-09T07:43:18.944Z,45.52
2024-05-09T07:45:52.549Z,45.59
2024-05-09T07:52:38.536Z,42.23
2024-05-09T07:53:47.468Z,42.37
2024-05-09T07:56:20.396Z,42.34
2024-05-09T07:58:52.361Z,41.89
2024-05-09T08:01:20.742Z,41.61
2024-05-09T08:03:48.971Z,41.15
2024-05-09T08:06:16.995Z,40.51
2024-05-09T08:08:47.575Z,40.34
2024-05-09T08:11:15.263Z,40.21
2024-05-09T08:13:43.005Z,40.23
2024-05-09T08:16:10.699Z,39.55
2024-05-09T08:18:38.643Z,40.01
2024-05-09T08:21:06.502Z,39.76
2024-05-09T08:23:34.246Z,40.59
2024-05-09T08:26:01.807Z,39.44
2024-05-09T08:28:29.440Z,39.88
2024-05-09T08:30:57.299Z,40.37
2024-05-09T08:33:25.253Z,40.43
2024-05-09T08:35:52.946Z,40.07
2024-05-09T08:38:20.742Z,40.09
2024-05-09T08:40:49.109Z,40.26
2024-05-09T08:43:19.731Z,39.68
2024-05-09T08:45:49.545Z,40.14
2024-05-09T08:48:19.663Z,40.36
2024-05-09T08:50:50.208Z,40.19
2024-05-09T08:53:18.777Z,40.96
2024-05-09T08:55:47.114Z,40.10
2024-05-09T08:58:19.232Z,39.20
2024-05-09T09:00:47.822Z,39.66
2024-05-09T09:03:18.308Z,39.51
2024-05-09T09:06:11.506Z,38.80
2024-05-09T09:08:39.595Z,39.27
2024-05-09T09:11:07.259Z,38.87
2024-05-09T09:13:35.003Z,38.35
2024-05-09T09:16:03.445Z,37.79
2024-05-09T09:18:32.777Z,37.45
2024-05-09T09:21:00.652Z,37.64
2024-05-09T09:23:29.570Z,36.77
2024-05-09T09:26:00.715Z,35.56
2024-05-09T09:28:29.561Z,35.86
2024-05-09T09:31:04.078Z,35.96
2024-05-09T09:33:32.655Z,35.74
2024-05-09T09:36:02.808Z,34.19
2024-05-09T09:38:32.233Z,35.09
2024-05-09T09:41:03.036Z,34.81
2024-05-09T09:43:32.822Z,34.87
2024-05-09T09:46:01.894Z,34.99
2024-05-09T09:48:32.050Z,33.32
2024-05-09T09:51:00.717Z,32.61
2024-05-09T09:53:28.896Z,32.57
2024-05-09T09:55:57.596Z,32.23
2024-05-09T09:58:25.457Z,32.94
2024-05-09T10:00:53.392Z,33.25
2024-05-09T10:03:21.174Z,32.31
2024-05-09T10:05:49.532Z,32.35
2024-05-09T10:08:18.498Z,31.28
2024-05-09T10:10:50.076Z,31.69
2024-05-09T10:13:19.751Z,31.44
2024-05-09T10:15:51.713Z,31.78
2024-05-09T10:18:26.098Z,31.05
2024-05-09T10:20:56.034Z,30.67
2024-05-09T10:23:27.212Z,29.64
2024-05-09T10:26:00.154Z,30.06
2024-05-09T10:28:29.293Z,29.23
2024-05-09T10:31:10.785Z,30.61
2024-05-09T10:33:51.004Z,30.40
2024-05-09T10:36:24.302Z,29.53
2024-05-09T10:38:55.335Z,30.48
2024-05-09T10:41:23.484Z,30.51
2024-05-09T10:43:52.133Z,30.09
2024-05-09T10:46:20.237Z,29.26
2024-05-09T10:48:48.792Z,29.07
2024-05-09T10:51:19.337Z,29.03
2024-05-09T10:53:47.881Z,29.40
2024-05-09T10:56:16.364Z,28.91
2024-05-09T10:58:44.269Z,28.97
2024-05-09T11:01:13.023Z,28.64
2024-05-09T11:03:41.708Z,28.74
2024-05-09T11:06:11.093Z,27.99
2024-05-09T11:08:39.294Z,28.00
2024-05-09T11:11:08.803Z,27.68
2024-05-09T11:13:38.711Z,27.35
2024-05-09T11:16:17.409Z,27.46
2024-05-09T11:18:56.684Z,27.85
2024-05-09T11:21:25.181Z,28.02
2024-05-09T11:23:53.294Z,27.37
2024-05-09T11:26:21.916Z,27.64
2024-05-09T11:28:50.429Z,28.70
2024-05-09T11:31:18.549Z,27.84
2024-05-09T11:33:46.602Z,28.48
2024-05-09T11:36:14.913Z,29.01
2024-05-09T11:38:43.005Z,29.06
2024-05-09T11:41:17.786Z,28.80
2024-05-09T11:43:45.518Z,28.34
2024-05-09T11:46:13.511Z,28.24
2024-05-09T11:48:41.674Z,27.95
2024-05-09T11:51:09.461Z,28.69
2024-05-09T11:53:37.082Z,28.25
2024-05-09T11:56:05.263Z,27.57
2024-05-09T11:58:34.768Z,27.55
2024-05-09T12:01:02.900Z,27.17
2024-05-09T12:03:31.077Z,26.86
2024-05-09T12:05:59.275Z,26.90
2024-05-09T12:08:27.213Z,27.08
2024-05-09T12:10:55.161Z,26.72
2024-05-09T12:13:23.060Z,27.41
2024-05-09T12:15:50.862Z,27.46
2024-05-09T12:18:18.596Z,27.07
2024-05-09T12:20:46.308Z,26.62
2024-05-09T12:23:14.458Z,26.33
2024-05-09T12:25:42.222Z,27.06
2024-05-09T12:28:10.278Z,27.47
2024-05-09T12:30:40.433Z,26.65
2024-05-09T12:33:12.213Z,26.72
2024-05-09T12:35:44.095Z,26.69
2024-05-09T12:38:15.141Z,26.60
2024-05-09T12:40:43.652Z,26.54
2024-05-09T12:43:11.942Z,26.91
2024-05-09T12:45:40.447Z,27.65
2024-05-09T12:48:11.373Z,28.35
2024-05-09T12:50:40.496Z,27.21
2024-05-09T12:53:08.263Z,26.20
2024-05-09T12:55:44.571Z,26.62
2024-05-09T12:58:23.952Z,27.02
2024-05-09T13:00:52.603Z,26.69
2024-05-09T13:03:21.556Z,25.87
2024-05-09T13:05:50.635Z,25.68
2024-05-09T13:08:19.420Z,26.18
2024-05-09T13:10:47.814Z,26.28
2024-05-09T13:13:15.670Z,26.37
2024-05-09T13:15:43.528Z,27.44
2024-05-09T13:18:11.521Z,27.60
2024-05-09T13:20:39.082Z,27.51
2024-05-09T13:23:08.307Z,27.38
2024-05-09T13:25:38.295Z,27.26
2024-05-09T13:28:06.980Z,27.07
2024-05-09T13:30:40.050Z,26.98
2024-05-09T13:33:11.930Z,26.36
2024-05-09T13:35:45.728Z,26.32
2024-05-09T13:38:21.203Z,26.22
2024-05-09T13:40:50.440Z,25.81
2024-05-09T13:43:19.772Z,26.12
2024-05-09T13:45:47.715Z,26.50
2024-05-09T13:48:15.678Z,25.96
2024-05-09T13:50:43.518Z,26.33
2024-05-09T13:53:11.706Z,26.30
2024-05-09T13:55:40.170Z,25.95
2024-05-09T13:58:09.124Z,25.20
2024-05-09T14:00:46.588Z,25.06
2024-05-09T14:03:19.646Z,25.33
2024-05-09T14:05:51.096Z,25.35
2024-05-09T14:08:21.738Z,24.73
2024-05-09T14:10:50.132Z,25.25
2024-05-09T14:13:18.424Z,25.74
2024-05-09T14:15:46.709Z,25.74
2024-05-09T14:18:15.061Z,25.70
2024-05-09T14:20:43.275Z,26.64
2024-05-09T14:23:11.255Z,26.81
2024-05-09T14:25:42.316Z,26.61
2024-05-09T14:28:12.564Z,26.29
2024-05-09T14:30:43.764Z,26.48
2024-05-09T14:33:11.733Z,26.91
2024-05-09T14:35:39.754Z,27.32
2024-05-09T14:38:08.538Z,27.93
2024-05-09T14:40:42.145Z,28.28
2024-05-09T14:43:13.737Z,28.53
2024-05-09T14:45:42.391Z,28.51
2024-05-09T14:48:11.742Z,28.81
2024-05-09T14:50:40.702Z,28.64
2024-05-09T14:53:10.599Z,28.80
2024-05-09T14:55:40.468Z,28.88
2024-05-09T14:58:10.201Z,29.05
2024-05-09T15:00:45.752Z,29.10
2024-05-09T15:03:18.676Z,28.95
2024-05-09T15:05:47.309Z,29.08
2024-05-09T15:08:17.175Z,29.39
2024-05-09T15:10:44.952Z,29.16
2024-05-09T15:13:15.476Z,29.40
2024-05-09T15:15:44.461Z,29.80
2024-05-09T15:18:13.460Z,29.91
2024-05-09T15:20:43.601Z,29.82
2024-05-09T15:23:11.507Z,30.04
2024-05-09T15:25:39.270Z,29.72
2024-05-09T15:28:08.162Z,30.12
2024-05-09T15:30:36.595Z,30.03
2024-05-09T15:33:05.745Z,30.10
2024-05-09T15:35:34.891Z,30.44
2024-05-09T15:38:03.514Z,30.27
2024-05-09T15:40:38.691Z,30.76
2024-05-09T15:43:09.912Z,31.01
2024-05-09T15:45:40.241Z,31.11
2024-05-09T15:48:10.347Z,30.62
2024-05-09T15:50:41.346Z,30.57
2024-05-09T15:53:12.240Z,30.79
2024-05-09T15:55:42.681Z,31.11
2024-05-09T15:58:11.106Z,31.15
2024-05-09T16:00:42.215Z,31.82
2024-05-09T16:03:13.363Z,31.90
2024-05-09T16:05:46.371Z,32.28
2024-05-09T16:08:15.587Z,32.09
2024-05-09T16:10:45.834Z,32.19
2024-05-09T16:13:15.188Z,32.25
2024-05-09T16:15:43.706Z,32.73
2024-05-09T16:18:12.497Z,32.53
2024-05-09T16:20:42.315Z,32.84
2024-05-09T16:23:12.505Z,33.12
2024-05-09T16:25:45.055Z,32.70
2024-05-09T16:28:13.449Z,32.87
2024-05-09T16:30:41.560Z,32.92
2024-05-09T16:33:10.789Z,32.99
2024-05-09T16:35:39.184Z,33.25
2024-05-09T16:38:07.258Z,33.38
2024-05-09T16:40:39.812Z,32.94
2024-05-09T16:43:10.263Z,33.21
2024-05-09T16:45:39.897Z,33.34
2024-05-09T16:48:08.766Z,33.09
2024-05-09T16:50:37.142Z,33.18
2024-05-09T16:53:06.243Z,33.66
2024-05-09T16:55:35.589Z,33.55
2024-05-09T16:58:04.314Z,33.72
2024-05-09T17:00:40.216Z,33.71
2024-05-09T17:03:14.236Z,33.94
2024-05-09T17:05:46.010Z,34.55
2024-05-09T17:08:16.688Z,34.44
2024-05-09T17:10:45.773Z,34.73
2024-05-09T17:13:13.992Z,34.67
2024-05-09T17:15:41.711Z,34.60
2024-05-09T17:18:09.701Z,34.81
2024-05-09T17:20:37.966Z,35.16
2024-05-09T17:23:12.913Z,34.96
2024-05-09T17:25:42.265Z,34.91
2024-05-09T17:28:10.866Z,34.71
2024-05-09T17:30:40.775Z,34.86
2024-05-09T17:33:11.386Z,34.84
2024-05-09T17:35:40.263Z,34.76
2024-05-09T17:38:08.229Z,35.00
2024-05-09T17:40:37.963Z,35.27
2024-05-09T17:43:08.952Z,35.33
2024-05-09T17:45:41.890Z,35.49
2024-05-09T17:48:11.651Z,35.35
2024-05-09T17:50:41.493Z,35.65
2024-05-09T17:53:10.245Z,35.88
2024-05-09T17:55:39.557Z,35.81
2024-05-09T17:58:07.712Z,35.83
2024-05-09T18:00:39.678Z,36.10
2024-05-09T18:03:11.860Z,36.23
2024-05-09T18:05:41.999Z,36.45
2024-05-09T18:08:10.333Z,36.35
2024-05-09T18:10:40.416Z,36.43
2024-05-09T18:13:09.209Z,36.80
2024-05-09T18:15:38.191Z,36.84
2024-05-09T18:18:07.385Z,36.89
2024-05-09T18:20:42.290Z,37.04
2024-05-09T18:23:16.139Z,37.40
2024-05-09T18:25:46.744Z,37.55
2024-05-09T18:28:15.574Z,37.63
2024-05-09T18:30:43.531Z,37.83
2024-05-09T18:33:12.175Z,38.00
2024-05-09T18:35:44.591Z,38.28
2024-05-09T18:38:13.161Z,38.23
2024-05-09T18:40:43.572Z,38.31
2024-05-09T18:43:13.099Z,39.12
2024-05-09T18:45:40.910Z,39.02
2024-05-09T18:48:12.411Z,39.54
2024-05-09T18:50:41.450Z,39.89
2024-05-09T18:53:11.800Z,40.25
2024-05-09T18:55:43.920Z,40.37
2024-05-09T18:58:11.921Z,40.69
2024-05-09T19:00:42.656Z,41.23
2024-05-09T19:03:14.292Z,41.53
2024-05-09T19:05:45.002Z,41.66
2024-05-09T19:08:14.666Z,42.12
2024-05-09T19:10:42.914Z,42.22
2024-05-09T19:13:13.836Z,41.94
2024-05-09T19:15:43.393Z,42.03
2024-05-09T19:18:13.039Z,42.68
2024-05-09T19:20:41.492Z,42.72
2024-05-09T19:23:10.702Z,42.79
2024-05-09T19:25:38.638Z,42.96
2024-05-09T19:28:06.529Z,43.30
2024-05-09T19:30:39.790Z,43.34
2024-05-09T19:33:14.600Z,43.72
2024-05-09T19:35:43.613Z,43.79
2024-05-09T19:38:12.531Z,44.32
2024-05-09T19:40:40.738Z,44.49
2024-05-09T19:43:09.015Z,44.71
2024-05-09T19:45:37.019Z,44.74
2024-05-09T19:48:06.625Z,45.11
2024-05-09T19:50:41.592Z,45.40
2024-05-09T19:53:13.292Z,45.83
2024-05-09T19:55:41.815Z,45.88
2024-05-09T19:58:10.822Z,46.09
2024-05-09T20:00:41.373Z,46.64
2024-05-09T20:03:12.051Z,46.99
2024-05-09T20:05:42.804Z,47.16
2024-05-09T20:08:10.911Z,47.24
2024-05-09T20:10:38.768Z,47.44
2024-05-09T20:13:08.148Z,48.00
2024-05-09T20:15:37.547Z,48.37
2024-05-09T20:18:06.301Z,49.14
2024-05-09T20:20:39.323Z,49.50
2024-05-09T20:23:11.298Z,49.81
2024-05-09T20:25:39.770Z,50.56
2024-05-09T20:28:07.663Z,50.82
2024-05-09T20:30:36.560Z,51.19
2024-05-09T20:33:07.037Z,51.42
2024-05-09T20:35:36.282Z,51.63
2024-05-09T20:38:04.705Z,51.66
2024-05-09T20:40:36.751Z,52.01
2024-05-09T20:43:10.364Z,52.30
2024-05-09T20:45:39.320Z,52.53
2024-05-09T20:48:08.550Z,52.79
2024-05-09T20:50:40.497Z,53.01
2024-05-09T20:53:14.468Z,53.14
2024-05-09T20:55:44.415Z,53.38
2024-05-09T20:58:13.680Z,53.85
2024-05-09T21:00:44.683Z,54.14
2024-05-09T21:03:16.675Z,54.51
2024-05-09T21:05:46.558Z,54.70
2024-05-09T21:08:14.929Z,55.02
2024-05-09T21:10:42.645Z,55.27
2024-05-09T21:13:11.234Z,55.80
2024-05-09T21:15:39.131Z,55.87
2024-05-09T21:18:07.424Z,56.05
2024-05-09T21:20:35.503Z,56.31
2024-05-09T21:23:03.808Z,56.66
2024-05-09T21:25:32.227Z,56.90
2024-05-09T21:28:00.702Z,57.33
2024-05-09T21:30:38.423Z,57.75
2024-05-09T21:33:12.462Z,58.06
2024-05-09T21:35:42.646Z,58.28
2024-05-09T21:38:10.537Z,58.55
2024-05-09T21:40:38.796Z,58.86
2024-05-09T21:43:07.498Z,59.29
2024-05-09T21:45:36.371Z,59.49
2024-05-09T21:48:05.508Z,59.79
2024-05-09T21:50:39.697Z,60.09
2024-05-09T21:53:13.220Z,60.25
2024-05-09T21:55:42.126Z,60.35
2024-05-09T21:58:11.374Z,60.45
2024-05-09T22:00:40.625Z,61.04
2024-05-09T22:03:10.693Z,61.32
2024-05-09T22:05:41.764Z,61.46
2024-05-09T22:08:10.575Z,61.85
2024-05-09T22:10:38.454Z,61.90
2024-05-09T22:13:07.232Z,62.00
2024-05-09T22:15:39.186Z,62.27
2024-05-09T22:18:10.068Z,62.67
2024-05-09T22:20:44.490Z,62.93
2024-05-09T22:23:14.731Z,63.38
2024-05-09T22:25:42.673Z,63.42
2024-05-09T22:28:14.347Z,63.73
2024-05-09T22:30:43.861Z,64.74
2024-05-09T22:33:12.373Z,64.76
2024-05-09T22:35:41.848Z,64.74
2024-05-09T22:38:09.528Z,65.43
2024-05-09T22:40:45.545Z,65.82
2024-05-09T22:43:19.383Z,66.01
2024-05-09T22:45:47.684Z,66.37
2024-05-09T22:48:15.862Z,66.34
2024-05-09T22:50:43.725Z,66.58
2024-05-09T22:53:11.449Z,66.90
2024-05-09T22:55:39.137Z,67.01
2024-05-09T22:58:06.920Z,66.99
2024-05-09T23:00:35.167Z,67.31
2024-05-09T23:03:03.322Z,67.62
2024-05-09T23:05:32.304Z,67.95
2024-05-09T23:08:01.443Z,68.27
2024-05-09T23:10:35.546Z,68.52
2024-05-09T23:13:06.490Z,68.77
2024-05-09T23:15:35.561Z,68.87
2024-05-09T23:18:03.827Z,69.06
2024-05-09T23:20:37.294Z,69.35
2024-05-09T23:23:08.506Z,69.36
2024-05-09T23:25:36.897Z,69.35
2024-05-09T23:28:05.516Z,69.43
2024-05-09T23:30:38.437Z,69.66
2024-05-09T23:33:13.067Z,69.90
2024-05-09T23:35:43.398Z,70.08
2024-05-09T23:38:11.863Z,70.09
2024-05-09T23:40:41.352Z,70.41
2024-05-09T23:43:11.378Z,70.63
2024-05-09T23:45:40.517Z,70.58
2024-05-09T23:48:08.903Z,70.56
2024-05-09T23:50:38.646Z,70.80
2024-05-09T23:53:09.363Z,71.02
2024-05-09T23:55:38.877Z,71.01
2024-05-09T23:58:07.853Z,71.41
